This is the latest recevied weather packets stored in our database for station/object K5RWS. If no packets are shown the sender has not sent any weather packets the latest 10 day(s).
| Time | Temp. | Humidity | Pressure | Rain* | Wind** | Luminosity | Snow |
|---|---|---|---|---|---|---|---|
| 1777677934 | 12.22° C | 59% | 1019.8 hPa | 0 mm | - | 256 W/m² | - |
| 1777677632 | 12.22° C | 60% | 1019.8 hPa | 0 mm | - | 243 W/m² | - |
| 1777677330 | 11.67° C | 61% | 1020.1 hPa | 0 mm | - | 221 W/m² | - |
| 1777677028 | 11.67° C | 61% | 1019.8 hPa | 0 mm | - | 155 W/m² | - |
| 1777676727 | 11.67° C | 60% | 1019.8 hPa | 0 mm | - | 194 W/m² | - |
| 1777676424 | 11.67° C | 62% | 1019.7 hPa | 0 mm | - | 132 W/m² | - |
| 1777676121 | 12.22° C | 62% | 1020 hPa | 0 mm | - | 143 W/m² | - |
| 1777675817 | 12.22° C | 62% | 1020 hPa | 0 mm | - | 213 W/m² | - |
| 1777675515 | 11.67° C | 61% | 1019.6 hPa | 0 mm | - | 217 W/m² | - |
| 1777675212 | 12.78° C | 61% | 1019.5 hPa | 0 mm | - | 267 W/m² | - |
| 1777674908 | 12.22° C | 58% | 1019.3 hPa | 0 mm | - | 277 W/m² | - |
| 1777674604 | 12.22° C | 59% | 1019.3 hPa | 0 mm | - | 267 W/m² | - |
| 1777674302 | 11.67° C | 62% | 1019.3 hPa | 0 mm | - | 731 W/m² | - |
| 1777673998 | 10.56° C | 65% | 1019.3 hPa | 0 mm | - | 276 W/m² | - |
| 1777673694 | 10.56° C | 70% | 1019.3 hPa | 0 mm | - | 469 W/m² | - |
| 1777673392 | 10° C | 69% | 1019 hPa | 0 mm | - | 375 W/m² | - |
| 1777673089 | 10° C | 64% | 1019.3 hPa | 0 mm | - | 79 W/m² | - |
| 1777672785 | 11.11° C | 63% | 1019.4 hPa | 0 mm | - | 73 W/m² | - |
| 1777672482 | 12.78° C | 54% | 1019.6 hPa | 0 mm | - | 55 W/m² | - |
| 1777672177 | 13.89° C | 50% | 1019.3 hPa | 0 mm | - | 68 W/m² | - |
| 1777671873 | 13.89° C | 51% | 1019.4 hPa | 0 mm | - | 67 W/m² | - |
| 1777671569 | 14.44° C | 49% | 1019.4 hPa | 0 mm | - | 115 W/m² | - |
| 1777671266 | 13.89° C | 49% | 1019.1 hPa | 0 mm | - | 125 W/m² | - |
| 1777670961 | 14.44° C | 48% | 1019.5 hPa | 0 mm | - | 71 W/m² | - |
| 1777670658 | 15° C | 48% | 1019.3 hPa | 0 mm | - | 101 W/m² | - |
* Rain latest hour (hover to see other rain measurements)
** Current wind speed in m/s (hover to see current wind gust speed)